createdAt,value
2023-03-03T00:00:46.745Z,97439.22
2023-03-03T00:03:17.504Z,97445.88
2023-03-03T00:05:43.994Z,97451.84
2023-03-03T00:08:10.644Z,97452.34
2023-03-03T00:10:38.238Z,97450.72
2023-03-03T00:13:12.773Z,97452.34
2023-03-03T00:15:39.307Z,97453.88
2023-03-03T00:18:18.868Z,97444.94
2023-03-03T00:20:52.246Z,97454.03
2023-03-03T00:23:38.771Z,97451.19
2023-03-03T00:26:21.337Z,97453.22
2023-03-03T00:28:49.981Z,97463.81
2023-03-03T00:31:25.622Z,97459.63
2023-03-03T00:33:54.887Z,97459.97
2023-03-03T00:36:28.722Z,97451.03
2023-03-03T00:38:57.897Z,97459.38
2023-03-03T00:41:27.455Z,97456.19
2023-03-03T00:43:54.494Z,97461.00
2023-03-03T00:46:23.467Z,97459.84
2023-03-03T00:48:51.277Z,97450.75
2023-03-03T00:51:30.395Z,97459.03
2023-03-03T00:53:58.210Z,97447.44
2023-03-03T00:56:24.995Z,97458.03
2023-03-03T00:58:51.814Z,97450.41
2023-03-03T01:01:20.847Z,97446.59
2023-03-03T01:03:51.241Z,97444.59
2023-03-03T01:06:17.783Z,97443.13
2023-03-03T01:08:44.399Z,97439.63
2023-03-03T01:11:17.449Z,97438.28
2023-03-03T01:13:47.965Z,97434.16
2023-03-03T01:16:14.536Z,97437.47
2023-03-03T01:18:42.052Z,97430.03
2023-03-03T01:21:09.360Z,97441.13
2023-03-03T01:23:35.888Z,97441.13
2023-03-03T01:26:02.632Z,97437.97
2023-03-03T01:28:29.136Z,97445.44
2023-03-03T01:31:00.650Z,97448.75
2023-03-03T01:33:27.259Z,97444.94
2023-03-03T01:35:54.425Z,97451.91
2023-03-03T01:38:21.365Z,97453.88
2023-03-03T01:40:59.264Z,97454.88
2023-03-03T01:43:31.534Z,97456.19
2023-03-03T01:45:57.929Z,97459.00
2023-03-03T01:48:37.954Z,97446.44
2023-03-03T01:51:18.248Z,97444.75
2023-03-03T01:53:49.922Z,97449.06
2023-03-03T01:56:16.398Z,97431.16
2023-03-03T01:58:46.733Z,97428.34
2023-03-03T02:01:21.006Z,97429.19
2023-03-03T02:03:48.400Z,97424.41
2023-03-03T02:06:19.564Z,97427.38
2023-03-03T02:08:59.824Z,97414.13
2023-03-03T02:11:29.605Z,97417.44
2023-03-03T02:13:56.097Z,97419.59
2023-03-03T02:16:23.039Z,97416.56
2023-03-03T02:18:49.855Z,97411.91
2023-03-03T02:21:20.718Z,97425.03
2023-03-03T02:23:58.493Z,97412.56
2023-03-03T02:26:31.200Z,97414.25
2023-03-03T02:29:03.128Z,97405.59
2023-03-03T02:31:31.588Z,97408.94
2023-03-03T02:33:59.185Z,97410.41
2023-03-03T02:36:31.753Z,97416.81
2023-03-03T02:39:07.161Z,97413.16
2023-03-03T02:41:53.224Z,97410.88
2023-03-03T02:44:23.072Z,97410.38
2023-03-03T02:46:50.902Z,97410.03
2023-03-03T02:49:20.845Z,97415.34
2023-03-03T02:51:47.641Z,97417.53
2023-03-03T02:54:15.734Z,97423.53
2023-03-03T02:56:42.453Z,97435.13
2023-03-03T02:59:09.287Z,97434.13
2023-03-03T03:01:42.122Z,97426.81
2023-03-03T03:04:24.542Z,97432.00
2023-03-03T03:06:52.254Z,97438.47
2023-03-03T03:09:21.179Z,97436.66
2023-03-03T03:11:49.846Z,97436.28
2023-03-03T03:14:20.156Z,97445.22
2023-03-03T03:16:46.744Z,97437.25
2023-03-03T03:19:13.293Z,97433.63
2023-03-03T03:21:40.572Z,97433.63
2023-03-03T03:24:08.246Z,97436.75
2023-03-03T03:26:36.946Z,97437.38
2023-03-03T03:29:03.608Z,97426.94
2023-03-03T03:31:30.930Z,97430.75
2023-03-03T03:33:57.401Z,97440.69
2023-03-03T03:36:24.502Z,97442.25
2023-03-03T03:38:52.384Z,97440.06
2023-03-03T03:41:18.835Z,97441.75
2023-03-03T03:43:45.717Z,97443.78
2023-03-03T03:46:13.026Z,97444.44
2023-03-03T03:48:39.559Z,97436.50
2023-03-03T03:51:09.825Z,97442.78
2023-03-03T03:53:36.337Z,97438.16
2023-03-03T03:56:02.825Z,97434.81
2023-03-03T03:58:30.452Z,97437.81
2023-03-03T04:01:06.636Z,97435.81
2023-03-03T04:03:36.105Z,97430.69
2023-03-03T04:06:06.075Z,97434.31
2023-03-03T04:08:33.953Z,97436.81
2023-03-03T04:11:00.866Z,97431.66
2023-03-03T04:13:28.885Z,97430.81
2023-03-03T04:15:55.731Z,97426.31
2023-03-03T04:18:22.396Z,97427.78
2023-03-03T04:20:49.976Z,97429.41
2023-03-03T04:23:16.584Z,97431.38
2023-03-03T04:25:43.079Z,97439.81
2023-03-03T04:28:15.446Z,97442.09
2023-03-03T04:30:42.662Z,97440.59
2023-03-03T04:33:09.650Z,97439.41
2023-03-03T04:35:38.639Z,97445.38
2023-03-03T04:38:05.704Z,97434.72
2023-03-03T04:40:33.227Z,97435.19
2023-03-03T04:43:01.201Z,97427.38
2023-03-03T04:45:28.026Z,97443.81
2023-03-03T04:47:54.637Z,97445.91
2023-03-03T04:50:22.206Z,97453.19
2023-03-03T04:52:48.675Z,97448.06
2023-03-03T04:55:16.625Z,97443.03
2023-03-03T04:57:45.348Z,97445.88
2023-03-03T05:00:13.505Z,97450.53
2023-03-03T05:02:41.285Z,97454.09
2023-03-03T05:05:13.654Z,97459.53
2023-03-03T05:07:40.746Z,97454.63
2023-03-03T05:10:08.173Z,97448.44
2023-03-03T05:12:34.596Z,97454.88
2023-03-03T05:15:01.379Z,97456.41
2023-03-03T05:17:27.813Z,97456.25
2023-03-03T05:19:54.210Z,97455.34
2023-03-03T05:22:20.663Z,97450.81
2023-03-03T05:24:49.268Z,97456.34
2023-03-03T05:27:16.420Z,97456.66
2023-03-03T05:29:42.921Z,97457.47
2023-03-03T05:32:09.402Z,97456.94
2023-03-03T05:34:36.076Z,97458.16
2023-03-03T05:37:03.711Z,97463.97
2023-03-03T05:39:30.156Z,97470.53
2023-03-03T05:41:56.855Z,97465.78
2023-03-03T05:44:23.310Z,97477.91
2023-03-03T05:46:49.824Z,97480.81
2023-03-03T05:49:16.429Z,97486.22
2023-03-03T05:51:42.999Z,97483.28
2023-03-03T05:54:09.473Z,97493.81
2023-03-03T05:56:35.987Z,97486.84
2023-03-03T05:59:02.611Z,97486.63
2023-03-03T06:01:29.329Z,97488.78
2023-03-03T06:03:55.833Z,97487.38
2023-03-03T06:06:22.320Z,97491.06
2023-03-03T06:08:48.801Z,97494.13
2023-03-03T06:11:16.666Z,97502.03
2023-03-03T06:13:43.203Z,97502.59
2023-03-03T06:16:10.005Z,97494.44
2023-03-03T06:18:37.018Z,97500.59
2023-03-03T06:21:03.577Z,97502.59
2023-03-03T06:23:30.029Z,97505.91
2023-03-03T06:25:56.640Z,97509.19
2023-03-03T06:28:24.932Z,97513.22
2023-03-03T06:30:55.759Z,97506.50
2023-03-03T06:33:22.973Z,97507.50
2023-03-03T06:35:51.616Z,97516.78
2023-03-03T06:38:18.119Z,97522.94
2023-03-03T06:40:45.357Z,97521.47
2023-03-03T06:43:12.320Z,97531.22
2023-03-03T06:45:38.934Z,97527.38
2023-03-03T06:48:05.599Z,97529.97
2023-03-03T06:50:32.130Z,97528.59
2023-03-03T06:53:10.554Z,97527.50
2023-03-03T06:55:37.340Z,97535.69
2023-03-03T06:58:16.165Z,97542.81
2023-03-03T07:00:45.109Z,97533.03
2023-03-03T07:03:15.991Z,97536.19
2023-03-03T07:05:43.402Z,97537.09
2023-03-03T07:08:17.530Z,97534.72
2023-03-03T07:10:44.896Z,97545.66
2023-03-03T07:13:26.887Z,97554.53
2023-03-03T07:15:54.848Z,97544.28
2023-03-03T07:18:24.702Z,97557.69
2023-03-03T07:20:51.390Z,97549.78
2023-03-03T07:23:42.349Z,97555.63
2023-03-03T07:26:12.593Z,97551.59
2023-03-03T07:28:42.387Z,97552.25
2023-03-03T07:31:39.231Z,97542.78
2023-03-03T07:34:23.741Z,97555.00
2023-03-03T07:36:53.785Z,97548.47
2023-03-03T07:39:40.354Z,97545.69
2023-03-03T07:42:27.711Z,97553.84
2023-03-03T07:45:22.047Z,97557.31
2023-03-03T07:47:48.492Z,97552.66
2023-03-03T07:50:24.156Z,97561.38
2023-03-03T07:53:01.014Z,97558.41
2023-03-03T07:55:35.548Z,97562.53
2023-03-03T07:58:10.920Z,97571.03
2023-03-03T08:00:40.497Z,97570.59
2023-03-03T08:03:17.828Z,97570.53
2023-03-03T08:05:47.939Z,97575.75
2023-03-03T08:08:42.519Z,97579.03
2023-03-03T08:11:09.615Z,97581.44
2023-03-03T08:13:38.678Z,97581.63
2023-03-03T08:16:11.126Z,97586.66
2023-03-03T08:18:42.461Z,97584.06
2023-03-03T08:21:15.068Z,97574.69
2023-03-03T08:23:41.599Z,97582.38
2023-03-03T08:26:08.707Z,97578.38
2023-03-03T08:28:35.341Z,97578.38
2023-03-03T08:31:16.401Z,97579.59
2023-03-03T08:33:45.483Z,97575.03
2023-03-03T08:36:12.703Z,97574.38
2023-03-03T08:38:39.727Z,97575.44
2023-03-03T08:41:06.503Z,97566.63
2023-03-03T08:43:33.074Z,97566.22
2023-03-03T08:46:01.818Z,97571.41
2023-03-03T08:48:29.488Z,97573.50
2023-03-03T08:50:56.107Z,97573.38
2023-03-03T08:53:23.650Z,97577.63
2023-03-03T08:55:50.279Z,97572.81
2023-03-03T08:58:18.280Z,97580.22
2023-03-03T09:00:48.117Z,97580.81
2023-03-03T09:03:15.738Z,97579.59
2023-03-03T09:05:42.275Z,97591.19
2023-03-03T09:08:10.643Z,97593.13
2023-03-03T09:10:37.583Z,97594.66
2023-03-03T09:13:13.757Z,97598.41
2023-03-03T09:15:40.459Z,97600.94
2023-03-03T09:18:20.335Z,97608.75
2023-03-03T09:20:54.446Z,97609.50
2023-03-03T09:23:23.907Z,97607.06
2023-03-03T09:25:51.715Z,97609.13
2023-03-03T09:28:32.733Z,97610.03
2023-03-03T09:31:01.528Z,97620.72
2023-03-03T09:33:40.365Z,97622.81
2023-03-03T09:36:37.973Z,97622.16
2023-03-03T09:39:25.768Z,97617.66
2023-03-03T09:42:26.107Z,97616.22
2023-03-03T09:45:20.354Z,97615.03
2023-03-03T09:47:55.952Z,97606.13
2023-03-03T09:50:46.789Z,97605.75
2023-03-03T09:53:38.058Z,97609.53
2023-03-03T09:56:30.123Z,97605.88
2023-03-03T09:59:01.950Z,97615.34
2023-03-03T10:01:53.405Z,97610.63
2023-03-03T10:04:34.954Z,97613.94
2023-03-03T10:07:22.739Z,97618.13
2023-03-03T10:09:58.380Z,97614.44
2023-03-03T10:12:45.410Z,97617.94
2023-03-03T10:15:26.559Z,97616.91
2023-03-03T10:18:16.880Z,97620.78
2023-03-03T10:20:52.400Z,97624.06
2023-03-03T10:23:22.613Z,97620.16
2023-03-03T10:26:08.447Z,97624.88
2023-03-03T10:28:50.418Z,97624.38
2023-03-03T10:31:42.598Z,97621.84
2023-03-03T10:34:27.502Z,97628.88
2023-03-03T10:36:56.576Z,97629.41
2023-03-03T10:39:58.370Z,97628.34
2023-03-03T10:42:36.598Z,97619.69
2023-03-03T10:45:36.019Z,97630.88
2023-03-03T10:48:24.022Z,97630.06
2023-03-03T10:50:58.661Z,97636.00
2023-03-03T10:53:46.006Z,97628.56
2023-03-03T10:56:35.404Z,97622.31
2023-03-03T10:59:31.305Z,97623.03
2023-03-03T11:02:43.137Z,97627.38
2023-03-03T11:05:18.315Z,97630.16
2023-03-03T11:07:51.741Z,97630.88
2023-03-03T11:10:37.495Z,97630.75
2023-03-03T11:13:19.136Z,97628.13
2023-03-03T11:16:10.030Z,97623.94
2023-03-03T11:19:02.391Z,97621.28
2023-03-03T11:21:47.301Z,97634.25
2023-03-03T11:24:26.779Z,97633.75
2023-03-03T11:26:53.149Z,97628.94
2023-03-03T11:29:47.851Z,97630.84
2023-03-03T11:32:24.065Z,97642.56
2023-03-03T11:34:56.239Z,97641.47
2023-03-03T11:37:39.632Z,97632.34
2023-03-03T11:40:18.118Z,97630.09
2023-03-03T11:43:18.593Z,97624.44
2023-03-03T11:45:58.439Z,97621.78
2023-03-03T11:48:33.703Z,97623.31
2023-03-03T11:51:07.651Z,97609.94
2023-03-03T11:53:43.132Z,97608.78
2023-03-03T11:56:27.670Z,97610.63
2023-03-03T11:58:58.172Z,97605.72
2023-03-03T12:01:30.422Z,97601.84
2023-03-03T12:04:06.347Z,97614.03
2023-03-03T12:06:47.907Z,97608.41
2023-03-03T12:09:32.005Z,97593.53
2023-03-03T12:12:14.688Z,97598.25
2023-03-03T12:15:10.556Z,97597.59
2023-03-03T12:18:05.922Z,97595.09
2023-03-03T12:20:59.966Z,97590.78
2023-03-03T12:23:51.303Z,97589.69
2023-03-03T12:26:27.089Z,97585.38
2023-03-03T12:28:59.494Z,97587.03
2023-03-03T12:31:44.384Z,97581.16
2023-03-03T12:34:26.967Z,97578.41
2023-03-03T12:37:05.151Z,97585.09
2023-03-03T12:39:56.225Z,97585.84
2023-03-03T12:42:41.706Z,97567.75
2023-03-03T12:45:30.063Z,97572.25
2023-03-03T12:48:05.463Z,97579.56
2023-03-03T12:51:21.322Z,97569.59
2023-03-03T12:54:13.608Z,97575.50
2023-03-03T12:56:51.114Z,97568.88
2023-03-03T12:59:29.541Z,97575.94
2023-03-03T13:02:29.910Z,97564.59
2023-03-03T13:05:27.297Z,97576.13
2023-03-03T13:08:16.383Z,97572.94
2023-03-03T13:10:50.363Z,97574.91
2023-03-03T13:13:26.940Z,97574.53
2023-03-03T13:16:17.119Z,97578.38
2023-03-03T13:19:08.758Z,97574.16
2023-03-03T13:21:41.992Z,97571.69
2023-03-03T13:24:43.654Z,97570.28
2023-03-03T13:27:16.892Z,97564.97
2023-03-03T13:29:59.316Z,97563.13
2023-03-03T13:32:40.395Z,97565.66
2023-03-03T13:35:30.013Z,97561.81
2023-03-03T13:37:58.120Z,97571.41
2023-03-03T13:41:09.414Z,97556.84
2023-03-03T13:43:47.432Z,97561.53
2023-03-03T13:46:51.485Z,97550.88
2023-03-03T13:49:20.836Z,97553.13
2023-03-03T13:52:02.797Z,97552.16
2023-03-03T13:54:53.098Z,97549.47
2023-03-03T13:57:31.440Z,97553.03
2023-03-03T14:00:24.723Z,97538.22
2023-03-03T14:03:29.698Z,97543.84
2023-03-03T14:06:14.594Z,97541.69
2023-03-03T14:08:50.441Z,97546.00
2023-03-03T14:11:25.191Z,97540.56
2023-03-03T14:14:28.718Z,97539.81
2023-03-03T14:17:11.661Z,97538.53
2023-03-03T14:19:48.211Z,97538.59
2023-03-03T14:22:37.975Z,97527.59
2023-03-03T14:25:22.801Z,97535.16
2023-03-03T14:27:49.180Z,97539.66
2023-03-03T14:30:21.846Z,97537.81
2023-03-03T14:33:17.628Z,97531.84
2023-03-03T14:35:57.534Z,97536.94
2023-03-03T14:38:36.011Z,97527.56
2023-03-03T14:41:13.810Z,97524.44
2023-03-03T14:43:42.703Z,97532.38
2023-03-03T14:46:24.865Z,97529.47
2023-03-03T14:48:53.526Z,97529.19
2023-03-03T14:51:27.147Z,97539.44
2023-03-03T14:53:53.996Z,97533.31
2023-03-03T14:56:30.278Z,97532.81
2023-03-03T14:59:18.771Z,97529.84
2023-03-03T15:01:45.763Z,97528.06
2023-03-03T15:04:25.729Z,97528.44
2023-03-03T15:06:54.867Z,97525.72
2023-03-03T15:09:36.784Z,97523.84
2023-03-03T15:12:18.979Z,97522.50
2023-03-03T15:14:48.776Z,97515.41
2023-03-03T15:17:34.178Z,97522.41
2023-03-03T15:20:27.145Z,97518.63
2023-03-03T15:23:05.720Z,97517.72
2023-03-03T15:25:58.763Z,97512.88
2023-03-03T15:28:55.703Z,97512.63
2023-03-03T15:31:45.635Z,97504.50
2023-03-03T15:34:38.203Z,97510.56
2023-03-03T15:37:12.779Z,97511.50
2023-03-03T15:39:44.905Z,97504.16
2023-03-03T15:42:13.567Z,97510.53
2023-03-03T15:44:58.833Z,97513.03
2023-03-03T15:47:50.017Z,97510.06
2023-03-03T15:50:35.830Z,97512.41
2023-03-03T15:53:26.970Z,97513.88
2023-03-03T15:56:16.264Z,97509.66
2023-03-03T15:59:08.138Z,97516.94
2023-03-03T16:01:35.935Z,97509.34
2023-03-03T16:04:10.343Z,97511.75
2023-03-03T16:07:16.664Z,97519.47
2023-03-03T16:10:12.159Z,97523.56
2023-03-03T16:12:41.640Z,97520.03
2023-03-03T16:15:36.302Z,97520.03
2023-03-03T16:18:24.577Z,97523.66
2023-03-03T16:21:01.775Z,97518.03
2023-03-03T16:23:47.194Z,97520.72
2023-03-03T16:26:25.550Z,97524.47
2023-03-03T16:29:07.595Z,97531.47
2023-03-03T16:31:45.726Z,97530.31
2023-03-03T16:34:33.601Z,97538.94
2023-03-03T16:37:22.353Z,97535.19
2023-03-03T16:40:01.829Z,97544.75
2023-03-03T16:42:30.613Z,97544.19
2023-03-03T16:45:06.614Z,97554.19
2023-03-03T16:47:44.547Z,97557.28
2023-03-03T16:50:15.629Z,97565.09
2023-03-03T16:52:47.947Z,97567.69
2023-03-03T16:55:28.094Z,97572.06
2023-03-03T16:58:16.493Z,97574.19
2023-03-03T17:00:50.558Z,97579.47
2023-03-03T17:03:35.537Z,97586.34
2023-03-03T17:06:15.556Z,97581.50
2023-03-03T17:09:33.545Z,97585.78
2023-03-03T17:12:18.680Z,97587.22
2023-03-03T17:15:10.985Z,97584.72
2023-03-03T17:17:47.148Z,97587.94
2023-03-03T17:20:36.912Z,97582.97
2023-03-03T17:23:20.518Z,97591.56
2023-03-03T17:25:52.925Z,97594.88
2023-03-03T17:28:51.680Z,97596.88
2023-03-03T17:31:21.205Z,97600.56
2023-03-03T17:34:03.492Z,97617.84
2023-03-03T17:36:48.588Z,97615.94
2023-03-03T17:39:24.158Z,97612.88
2023-03-03T17:41:59.742Z,97630.00
2023-03-03T17:44:46.399Z,97627.94
2023-03-03T17:47:23.942Z,97630.59
2023-03-03T17:49:56.344Z,97628.94
2023-03-03T17:52:39.385Z,97635.72
2023-03-03T17:55:32.545Z,97644.19
2023-03-03T17:58:14.198Z,97646.00
2023-03-03T18:01:07.148Z,97638.75
2023-03-03T18:04:00.841Z,97657.94
2023-03-03T18:06:55.357Z,97657.13
2023-03-03T18:09:33.663Z,97653.78
2023-03-03T18:12:31.228Z,97652.63
2023-03-03T18:15:16.240Z,97653.88
2023-03-03T18:18:22.285Z,97658.59
2023-03-03T18:20:59.803Z,97659.63
2023-03-03T18:23:41.970Z,97662.38
2023-03-03T18:26:26.738Z,97656.44
2023-03-03T18:29:05.710Z,97666.94
2023-03-03T18:31:46.209Z,97667.19
2023-03-03T18:34:18.763Z,97664.03
2023-03-03T18:37:07.359Z,97659.06
2023-03-03T18:39:45.669Z,97672.91
2023-03-03T18:42:40.963Z,97670.16
2023-03-03T18:45:30.318Z,97680.44
2023-03-03T18:48:03.875Z,97670.53
2023-03-03T18:50:34.564Z,97673.19
2023-03-03T18:53:23.785Z,97679.28
2023-03-03T18:55:58.616Z,97683.22
2023-03-03T18:58:41.352Z,97685.34
2023-03-03T19:01:10.917Z,97693.88
2023-03-03T19:03:47.066Z,97690.19
2023-03-03T19:06:32.904Z,97685.47
2023-03-03T19:08:59.546Z,97694.84
2023-03-03T19:11:44.900Z,97696.44
2023-03-03T19:14:17.234Z,97700.31
2023-03-03T19:16:44.696Z,97695.97
2023-03-03T19:19:12.502Z,97702.41
2023-03-03T19:21:40.732Z,97698.53
2023-03-03T19:24:22.655Z,97700.84
2023-03-03T19:27:02.258Z,97701.03
2023-03-03T19:29:46.807Z,97695.50
2023-03-03T19:32:44.375Z,97694.47
2023-03-03T19:35:18.616Z,97706.44
2023-03-03T19:38:18.472Z,97701.56
2023-03-03T19:40:55.701Z,97701.66
2023-03-03T19:43:44.920Z,97701.03
2023-03-03T19:46:47.154Z,97701.78
2023-03-03T19:49:27.760Z,97702.63
2023-03-03T19:52:14.024Z,97703.41
2023-03-03T19:54:59.039Z,97710.09
2023-03-03T19:57:37.306Z,97707.69
2023-03-03T20:00:19.434Z,97710.34
2023-03-03T20:03:07.051Z,97706.75
2023-03-03T20:05:52.417Z,97707.63
2023-03-03T20:08:31.147Z,97716.91
2023-03-03T20:11:35.896Z,97729.94
2023-03-03T20:14:34.656Z,97717.38
2023-03-03T20:17:32.212Z,97729.66
2023-03-03T20:20:12.897Z,97726.94
2023-03-03T20:23:01.984Z,97730.78
2023-03-03T20:25:34.636Z,97730.66
2023-03-03T20:28:39.068Z,97739.09
2023-03-03T20:31:11.745Z,97737.81
2023-03-03T20:33:45.432Z,97745.41
2023-03-03T20:36:33.940Z,97729.84
2023-03-03T20:39:14.767Z,97730.34
2023-03-03T20:42:09.179Z,97731.38
2023-03-03T20:44:58.783Z,97733.16
2023-03-03T20:47:56.471Z,97734.56
2023-03-03T20:50:37.556Z,97733.16
2023-03-03T20:53:37.843Z,97740.66
2023-03-03T20:56:24.262Z,97747.78
2023-03-03T20:59:05.950Z,97742.88
2023-03-03T21:01:41.675Z,97734.88
2023-03-03T21:04:30.265Z,97736.69
2023-03-03T21:06:58.008Z,97736.69
2023-03-03T21:09:37.912Z,97734.50
2023-03-03T21:12:28.871Z,97749.22
2023-03-03T21:15:02.090Z,97745.28
2023-03-03T21:17:30.900Z,97744.22
2023-03-03T21:20:29.975Z,97753.69
2023-03-03T21:22:58.383Z,97747.84
2023-03-03T21:25:40.240Z,97741.22
2023-03-03T21:28:24.089Z,97752.22
2023-03-03T21:31:09.100Z,97762.44
2023-03-03T21:33:44.640Z,97763.00
2023-03-03T21:36:14.330Z,97763.81
2023-03-03T21:38:41.501Z,97750.31
2023-03-03T21:41:08.945Z,97750.94
2023-03-03T21:43:41.566Z,97755.13
2023-03-03T21:46:08.621Z,97752.97
2023-03-03T21:48:35.197Z,97757.66
2023-03-03T21:51:01.756Z,97749.88
2023-03-03T21:53:29.641Z,97752.84
2023-03-03T21:55:56.172Z,97758.03
2023-03-03T21:58:22.698Z,97753.22
2023-03-03T22:00:49.209Z,97745.69
2023-03-03T22:03:16.802Z,97752.72
2023-03-03T22:05:43.747Z,97758.16
2023-03-03T22:08:10.215Z,97761.56
2023-03-03T22:10:36.694Z,97759.00
2023-03-03T22:13:03.469Z,97761.38
2023-03-03T22:15:33.166Z,97761.91
2023-03-03T22:18:00.426Z,97752.75
2023-03-03T22:20:27.008Z,97750.09
2023-03-03T22:22:53.541Z,97756.88
2023-03-03T22:25:19.988Z,97764.16
2023-03-03T22:27:46.532Z,97752.91
2023-03-03T22:30:13.655Z,97748.75
2023-03-03T22:32:40.197Z,97756.06
2023-03-03T22:35:08.399Z,97750.41
2023-03-03T22:37:34.924Z,97753.53
2023-03-03T22:40:01.485Z,97751.59
2023-03-03T22:42:28.113Z,97752.75
2023-03-03T22:44:54.562Z,97757.19
2023-03-03T22:47:21.015Z,97757.88
2023-03-03T22:49:47.497Z,97761.00
2023-03-03T22:52:13.993Z,97756.50
2023-03-03T22:54:40.982Z,97757.22
2023-03-03T22:57:07.455Z,97756.06
2023-03-03T22:59:34.484Z,97759.22
2023-03-03T23:02:01.000Z,97759.16
2023-03-03T23:04:27.555Z,97758.69
2023-03-03T23:06:54.164Z,97755.56
2023-03-03T23:09:20.667Z,97762.69
2023-03-03T23:11:47.140Z,97762.38
2023-03-03T23:14:13.997Z,97760.44
2023-03-03T23:16:40.503Z,97765.06
2023-03-03T23:19:07.004Z,97764.25
2023-03-03T23:21:33.769Z,97761.25
2023-03-03T23:24:00.272Z,97764.53
2023-03-03T23:26:26.755Z,97760.72
2023-03-03T23:28:53.217Z,97762.91
2023-03-03T23:31:19.716Z,97762.88
2023-03-03T23:33:46.280Z,97769.88
2023-03-03T23:36:12.901Z,97771.53
2023-03-03T23:38:40.293Z,97769.53
2023-03-03T23:41:08.397Z,97763.91
2023-03-03T23:43:35.012Z,97769.50
2023-03-03T23:46:01.470Z,97774.97
2023-03-03T23:48:27.922Z,97773.38
2023-03-03T23:50:54.424Z,97775.50
2023-03-03T23:53:21.060Z,97778.31
2023-03-03T23:55:47.596Z,97774.16
2023-03-03T23:58:14.153Z,97781.34
